createdAt,value
2022-12-11T00:01:14.624Z,10.93
2022-12-11T00:03:41.663Z,11.17
2022-12-11T00:06:11.354Z,10.92
2022-12-11T00:08:38.509Z,11.17
2022-12-11T00:11:07.770Z,11.09
2022-12-11T00:13:34.373Z,11.15
2022-12-11T00:16:01.266Z,11.13
2022-12-11T00:18:28.038Z,11.11
2022-12-11T00:20:54.619Z,11.11
2022-12-11T00:23:21.267Z,11.05
2022-12-11T00:25:48.264Z,11.11
2022-12-11T00:28:19.547Z,10.84
2022-12-11T00:30:46.875Z,11.11
2022-12-11T00:33:14.945Z,11.13
2022-12-11T00:35:44.856Z,11.10
2022-12-11T00:38:20.039Z,11.10
2022-12-11T00:40:46.925Z,10.84
2022-12-11T00:43:14.377Z,11.09
2022-12-11T00:45:43.442Z,10.79
2022-12-11T00:48:11.409Z,10.75
2022-12-11T00:50:38.736Z,11.06
2022-12-11T00:53:06.615Z,10.77
2022-12-11T00:55:38.029Z,11.04
2022-12-11T00:58:04.862Z,10.86
2022-12-11T01:00:31.671Z,11.00
2022-12-11T01:02:58.343Z,10.99
2022-12-11T01:05:25.014Z,11.00
2022-12-11T01:07:51.720Z,10.98
2022-12-11T01:10:24.205Z,10.75
2022-12-11T01:12:55.377Z,11.01
2022-12-11T01:15:24.071Z,10.98
2022-12-11T01:17:51.611Z,10.97
2022-12-11T01:20:19.802Z,10.70
2022-12-11T01:22:46.531Z,10.95
2022-12-11T01:25:13.339Z,10.94
2022-12-11T01:27:40.251Z,10.88
2022-12-11T01:30:08.595Z,10.91
2022-12-11T01:32:36.045Z,10.94
2022-12-11T01:35:05.036Z,10.65
2022-12-11T01:37:31.723Z,10.87
2022-12-11T01:39:59.613Z,10.92
2022-12-11T01:42:26.392Z,10.71
2022-12-11T01:44:52.921Z,10.90
2022-12-11T01:47:19.616Z,10.87
2022-12-11T01:49:46.265Z,10.83
2022-12-11T01:52:19.407Z,10.85
2022-12-11T01:54:46.702Z,10.60
2022-12-11T01:57:15.109Z,10.81
2022-12-11T01:59:45.926Z,10.64
2022-12-11T02:02:20.491Z,10.81
2022-12-11T02:04:48.516Z,10.79
2022-12-11T02:07:15.860Z,10.70
2022-12-11T02:09:45.964Z,10.81
2022-12-11T02:12:31.101Z,10.86
2022-12-11T02:15:25.331Z,10.85
2022-12-11T02:18:01.085Z,10.86
2022-12-11T02:20:36.694Z,10.81
2022-12-11T02:23:25.682Z,10.84
2022-12-11T02:26:11.035Z,10.83
2022-12-11T02:28:45.444Z,10.83
2022-12-11T02:31:38.495Z,10.56
2022-12-11T02:34:25.357Z,10.84
2022-12-11T02:36:57.157Z,10.80
2022-12-11T02:39:25.324Z,10.86
2022-12-11T02:41:52.171Z,10.78
2022-12-11T02:44:25.423Z,10.82
2022-12-11T02:46:54.773Z,10.54
2022-12-11T02:49:23.182Z,10.54
2022-12-11T02:51:51.700Z,10.74
2022-12-11T02:54:23.940Z,10.56
2022-12-11T02:57:01.028Z,10.75
2022-12-11T02:59:35.680Z,10.49
2022-12-11T03:02:03.655Z,10.63
2022-12-11T03:04:31.171Z,10.48
2022-12-11T03:07:02.876Z,10.72
2022-12-11T03:09:31.761Z,10.73
2022-12-11T03:11:58.404Z,10.53
2022-12-11T03:14:25.222Z,10.44
2022-12-11T03:17:11.915Z,10.50
2022-12-11T03:20:05.023Z,10.44
2022-12-11T03:22:39.039Z,10.70
2022-12-11T03:25:21.009Z,10.64
2022-12-11T03:28:02.287Z,10.40
2022-12-11T03:30:31.203Z,10.67
2022-12-11T03:33:02.827Z,10.40
2022-12-11T03:35:48.304Z,10.68
2022-12-11T03:38:23.025Z,10.34
2022-12-11T03:40:53.460Z,10.55
2022-12-11T03:43:22.027Z,10.66
2022-12-11T03:45:50.911Z,10.61
2022-12-11T03:48:19.937Z,10.62
2022-12-11T03:50:47.923Z,10.63
2022-12-11T03:53:15.761Z,10.59
2022-12-11T03:55:43.153Z,10.52
2022-12-11T03:58:09.857Z,10.38
2022-12-11T04:00:37.054Z,10.56
2022-12-11T04:03:14.059Z,10.55
2022-12-11T04:05:49.263Z,10.55
2022-12-11T04:08:17.920Z,10.53
2022-12-11T04:10:44.900Z,10.53
2022-12-11T04:13:11.769Z,10.52
2022-12-11T04:15:39.890Z,10.53
2022-12-11T04:18:26.196Z,10.27
2022-12-11T04:21:15.330Z,10.46
2022-12-11T04:24:00.606Z,10.51
2022-12-11T04:26:27.293Z,10.51
2022-12-11T04:28:53.996Z,10.24
2022-12-11T04:31:22.770Z,10.51
2022-12-11T04:33:49.786Z,10.19
2022-12-11T04:36:18.069Z,10.44
2022-12-11T04:38:44.698Z,10.50
2022-12-11T04:41:14.392Z,10.24
2022-12-11T04:43:41.455Z,10.24
2022-12-11T04:46:17.127Z,10.20
2022-12-11T04:48:44.840Z,10.18
2022-12-11T04:51:11.616Z,10.46
2022-12-11T04:53:38.935Z,10.20
2022-12-11T04:56:10.488Z,10.46
2022-12-11T04:58:37.919Z,10.43
2022-12-11T05:01:24.768Z,10.47
2022-12-11T05:03:51.508Z,10.46
2022-12-11T05:06:18.206Z,10.46
2022-12-11T05:08:45.552Z,10.41
2022-12-11T05:11:14.928Z,10.19
2022-12-11T05:13:42.343Z,10.15
2022-12-11T05:16:11.057Z,10.36
2022-12-11T05:18:38.425Z,10.38
2022-12-11T05:21:08.322Z,10.44
2022-12-11T05:23:35.218Z,10.16
2022-12-11T05:26:07.992Z,10.46
2022-12-11T05:28:36.703Z,10.46
2022-12-11T05:31:11.230Z,10.48
2022-12-11T05:33:37.940Z,10.51
2022-12-11T05:36:05.061Z,10.52
2022-12-11T05:38:31.627Z,10.25
2022-12-11T05:41:00.570Z,10.29
2022-12-11T05:43:28.428Z,10.52
2022-12-11T05:45:55.586Z,10.52
2022-12-11T05:48:22.510Z,10.54
2022-12-11T05:51:00.048Z,10.55
2022-12-11T05:53:27.458Z,10.28
2022-12-11T05:55:54.444Z,10.57
2022-12-11T05:58:21.549Z,10.35
2022-12-11T06:00:48.409Z,10.55
2022-12-11T06:03:15.117Z,10.35
2022-12-11T06:05:42.234Z,10.60
2022-12-11T06:08:09.284Z,10.51
2022-12-11T06:10:36.054Z,10.60
2022-12-11T06:13:02.948Z,10.60
2022-12-11T06:15:29.689Z,10.33
2022-12-11T06:17:56.415Z,10.61
2022-12-11T06:20:23.038Z,10.32
2022-12-11T06:22:49.677Z,10.63
2022-12-11T06:25:16.314Z,10.61
2022-12-11T06:27:43.023Z,10.59
2022-12-11T06:30:10.189Z,10.60
2022-12-11T06:32:36.880Z,10.43
2022-12-11T06:35:03.700Z,10.35
2022-12-11T06:37:30.381Z,10.35
2022-12-11T06:39:56.890Z,10.38
2022-12-11T06:42:23.763Z,10.67
2022-12-11T06:44:50.348Z,10.64
2022-12-11T06:47:16.929Z,10.66
2022-12-11T06:49:43.578Z,10.65
2022-12-11T06:52:14.987Z,10.66
2022-12-11T06:54:44.668Z,10.40
2022-12-11T06:57:11.397Z,10.64
2022-12-11T06:59:38.064Z,10.68
2022-12-11T07:02:04.962Z,10.70
2022-12-11T07:04:32.045Z,10.43
2022-12-11T07:06:58.712Z,10.65
2022-12-11T07:09:25.340Z,10.41
2022-12-11T07:11:53.197Z,10.72
2022-12-11T07:14:20.507Z,10.63
2022-12-11T07:16:47.140Z,10.70
2022-12-11T07:19:13.739Z,10.62
2022-12-11T07:21:40.584Z,10.73
2022-12-11T07:24:07.931Z,10.74
2022-12-11T07:26:34.757Z,10.50
2022-12-11T07:29:01.472Z,10.76
2022-12-11T07:31:29.634Z,10.72
2022-12-11T07:33:58.595Z,10.52
2022-12-11T07:36:26.383Z,10.48
2022-12-11T07:38:53.525Z,10.78
2022-12-11T07:41:20.846Z,10.50
2022-12-11T07:43:53.003Z,10.76
2022-12-11T07:46:25.607Z,10.51
2022-12-11T07:48:52.449Z,10.77
2022-12-11T07:51:27.848Z,10.72
2022-12-11T07:53:57.073Z,10.54
2022-12-11T07:56:24.046Z,10.81
2022-12-11T07:58:51.040Z,10.55
2022-12-11T08:01:23.649Z,10.79
2022-12-11T08:03:50.896Z,10.56
2022-12-11T08:06:18.588Z,10.82
2022-12-11T08:08:45.491Z,10.83
2022-12-11T08:11:14.953Z,10.80
2022-12-11T08:13:43.157Z,10.85
2022-12-11T08:16:13.413Z,10.86
2022-12-11T08:18:41.575Z,10.84
2022-12-11T08:21:10.789Z,10.82
2022-12-11T08:23:37.538Z,10.86
2022-12-11T08:26:07.310Z,10.85
2022-12-11T08:28:34.684Z,10.87
2022-12-11T08:31:04.851Z,10.84
2022-12-11T08:33:31.891Z,10.88
2022-12-11T08:35:58.651Z,10.83
2022-12-11T08:38:25.801Z,10.87
2022-12-11T08:40:52.979Z,10.88
2022-12-11T08:43:19.740Z,10.89
2022-12-11T08:45:47.050Z,10.64
2022-12-11T08:48:13.942Z,10.84
2022-12-11T08:50:40.701Z,10.86
2022-12-11T08:53:07.425Z,10.84
2022-12-11T08:55:34.606Z,10.92
2022-12-11T08:58:01.313Z,10.75
2022-12-11T09:00:28.089Z,10.90
2022-12-11T09:02:54.765Z,10.65
2022-12-11T09:05:21.483Z,10.93
2022-12-11T09:07:48.277Z,10.71
2022-12-11T09:10:15.022Z,10.96
2022-12-11T09:12:41.694Z,10.96
2022-12-11T09:15:09.061Z,10.94
2022-12-11T09:17:36.345Z,10.89
2022-12-11T09:20:03.680Z,10.95
2022-12-11T09:22:33.103Z,10.98
2022-12-11T09:24:59.759Z,10.99
2022-12-11T09:27:26.439Z,10.78
2022-12-11T09:29:53.128Z,10.98
2022-12-11T09:32:21.045Z,10.97
2022-12-11T09:34:50.846Z,11.00
2022-12-11T09:37:17.740Z,10.88
2022-12-11T09:39:44.535Z,11.02
2022-12-11T09:42:23.726Z,11.01
2022-12-11T09:44:52.670Z,11.03
2022-12-11T09:47:42.641Z,11.02
2022-12-11T09:50:09.282Z,11.03
2022-12-11T09:52:57.923Z,11.05
2022-12-11T09:55:29.830Z,11.05
2022-12-11T09:58:13.543Z,11.06
2022-12-11T10:00:52.190Z,11.09
2022-12-11T10:03:57.745Z,11.10
2022-12-11T10:06:48.472Z,11.12
2022-12-11T10:09:43.416Z,11.13
2022-12-11T10:12:39.934Z,11.12
2022-12-11T10:15:26.379Z,11.16
2022-12-11T10:18:02.955Z,11.17
2022-12-11T10:20:39.340Z,11.12
2022-12-11T10:23:18.072Z,11.19
2022-12-11T10:26:10.820Z,11.20
2022-12-11T10:28:37.792Z,11.21
2022-12-11T10:31:07.444Z,11.22
2022-12-11T10:33:59.795Z,11.22
2022-12-11T10:36:37.311Z,11.24
2022-12-11T10:39:11.041Z,11.23
2022-12-11T10:41:40.026Z,11.25
2022-12-11T10:44:17.771Z,11.28
2022-12-11T10:46:45.459Z,11.24
2022-12-11T10:49:22.784Z,11.11
2022-12-11T10:51:50.273Z,11.24
2022-12-11T10:54:35.565Z,11.31
2022-12-11T10:57:03.606Z,11.08
2022-12-11T10:59:38.104Z,11.33
2022-12-11T11:02:07.505Z,11.31
2022-12-11T11:04:38.031Z,11.27
2022-12-11T11:07:13.788Z,11.11
2022-12-11T11:09:40.975Z,11.33
2022-12-11T11:12:27.143Z,11.37
2022-12-11T11:15:06.340Z,11.38
2022-12-11T11:17:51.146Z,11.36
2022-12-11T11:20:24.591Z,11.38
2022-12-11T11:22:56.154Z,11.14
2022-12-11T11:25:27.972Z,11.39
2022-12-11T11:27:55.494Z,11.43
2022-12-11T11:30:28.652Z,11.19
2022-12-11T11:33:00.710Z,11.42
2022-12-11T11:35:29.853Z,11.44
2022-12-11T11:38:19.155Z,11.47
2022-12-11T11:41:15.487Z,11.48
2022-12-11T11:43:49.169Z,11.44
2022-12-11T11:46:25.646Z,11.50
2022-12-11T11:48:58.573Z,11.50
2022-12-11T11:51:34.020Z,11.47
2022-12-11T11:54:09.240Z,11.69
2022-12-11T11:56:37.965Z,11.60
2022-12-11T11:59:16.256Z,11.58
2022-12-11T12:01:43.748Z,11.31
2022-12-11T12:04:11.710Z,11.33
2022-12-11T12:06:50.694Z,11.58
2022-12-11T12:09:20.943Z,11.59
2022-12-11T12:12:00.026Z,11.33
2022-12-11T12:14:53.727Z,11.55
2022-12-11T12:17:31.397Z,11.60
2022-12-11T12:19:58.090Z,11.64
2022-12-11T12:22:30.652Z,11.65
2022-12-11T12:25:33.122Z,11.60
2022-12-11T12:28:14.392Z,11.64
2022-12-11T12:31:15.262Z,11.65
2022-12-11T12:34:03.854Z,11.74
2022-12-11T12:36:47.969Z,11.68
2022-12-11T12:39:33.421Z,11.69
2022-12-11T12:42:19.910Z,11.68
2022-12-11T12:45:14.362Z,11.66
2022-12-11T12:47:43.404Z,11.53
2022-12-11T12:50:20.155Z,11.43
2022-12-11T12:52:48.840Z,11.49
2022-12-11T12:55:39.947Z,11.71
2022-12-11T12:58:08.161Z,11.33
2022-12-11T13:00:36.492Z,11.70
2022-12-11T13:03:16.304Z,11.72
2022-12-11T13:05:55.145Z,11.68
2022-12-11T13:08:27.750Z,11.72
2022-12-11T13:11:02.370Z,11.44
2022-12-11T13:13:36.803Z,11.71
2022-12-11T13:16:25.699Z,11.48
2022-12-11T13:18:53.479Z,11.66
2022-12-11T13:21:38.600Z,11.76
2022-12-11T13:24:32.344Z,11.77
2022-12-11T13:27:11.194Z,11.73
2022-12-11T13:29:40.576Z,11.79
2022-12-11T13:32:10.255Z,11.79
2022-12-11T13:34:42.740Z,11.56
2022-12-11T13:37:31.840Z,11.52
2022-12-11T13:39:59.477Z,11.78
2022-12-11T13:42:33.088Z,11.74
2022-12-11T13:45:00.841Z,11.79
2022-12-11T13:47:28.956Z,11.79
2022-12-11T13:50:33.237Z,11.81
2022-12-11T13:53:01.568Z,11.80
2022-12-11T13:55:31.615Z,11.82
2022-12-11T13:57:58.716Z,11.81
2022-12-11T14:00:32.685Z,11.80
2022-12-11T14:03:04.275Z,11.53
2022-12-11T14:05:31.215Z,11.81
2022-12-11T14:08:02.343Z,11.68
2022-12-11T14:10:32.218Z,11.77
2022-12-11T14:13:05.491Z,11.74
2022-12-11T14:15:33.791Z,11.77
2022-12-11T14:18:01.316Z,11.60
2022-12-11T14:20:31.716Z,11.79
2022-12-11T14:23:19.184Z,12.28
2022-12-11T14:25:53.346Z,12.19
2022-12-11T14:28:21.072Z,12.16
2022-12-11T14:30:50.938Z,12.09
2022-12-11T14:33:21.997Z,12.18
2022-12-11T14:35:50.510Z,12.17
2022-12-11T14:38:21.517Z,12.18
2022-12-11T14:40:53.663Z,12.18
2022-12-11T14:43:36.333Z,12.09
2022-12-11T14:46:09.578Z,12.07
2022-12-11T14:48:46.993Z,12.17
2022-12-11T14:51:18.266Z,12.08
2022-12-11T14:53:48.781Z,12.18
2022-12-11T14:56:25.663Z,12.18
2022-12-11T14:59:02.696Z,12.18
2022-12-11T15:01:35.452Z,12.19
2022-12-11T15:04:14.265Z,12.20
2022-12-11T15:06:51.016Z,12.07
2022-12-11T15:09:20.258Z,12.20
2022-12-11T15:11:50.133Z,12.18
2022-12-11T15:14:19.137Z,12.20
2022-12-11T15:16:47.989Z,12.17
2022-12-11T15:19:22.924Z,12.16
2022-12-11T15:21:50.517Z,12.11
2022-12-11T15:24:36.606Z,12.18
2022-12-11T15:27:05.966Z,12.16
2022-12-11T15:29:38.642Z,12.17
2022-12-11T15:32:08.430Z,12.05
2022-12-11T15:34:42.706Z,12.13
2022-12-11T15:37:19.954Z,12.11
2022-12-11T15:39:46.614Z,12.10
2022-12-11T15:42:23.356Z,12.01
2022-12-11T15:44:50.339Z,12.03
2022-12-11T15:47:23.378Z,12.21
2022-12-11T15:49:50.940Z,12.26
2022-12-11T15:52:17.537Z,12.19
2022-12-11T15:54:44.926Z,12.16
2022-12-11T15:57:17.059Z,12.14
2022-12-11T15:59:45.813Z,12.15
2022-12-11T16:02:13.169Z,12.44
2022-12-11T16:04:40.061Z,12.42
2022-12-11T16:07:18.756Z,12.29
2022-12-11T16:41:46.411Z,17.49
2022-12-11T16:44:13.123Z,16.36
2022-12-11T16:46:39.802Z,15.69
2022-12-11T16:49:06.472Z,15.14
2022-12-11T16:51:33.161Z,14.84
2022-12-11T16:53:59.894Z,14.58
2022-12-11T16:56:27.907Z,14.38
2022-12-11T16:58:54.948Z,14.26
2022-12-11T17:01:21.766Z,14.09
2022-12-11T17:03:48.670Z,14.01
2022-12-11T17:06:17.750Z,13.96
2022-12-11T17:08:45.484Z,13.89
2022-12-11T17:11:15.786Z,13.83
2022-12-11T17:13:43.444Z,13.80
2022-12-11T17:16:12.930Z,13.70
2022-12-11T17:18:40.291Z,13.73
2022-12-11T17:21:12.777Z,13.70
2022-12-11T17:23:40.118Z,13.60
2022-12-11T17:26:09.617Z,13.65
2022-12-11T17:28:37.279Z,13.63
2022-12-11T17:31:09.013Z,13.61
2022-12-11T17:33:38.174Z,13.58
2022-12-11T17:36:07.344Z,13.58
2022-12-11T17:38:34.703Z,13.58
2022-12-11T17:41:06.352Z,13.58
2022-12-11T17:43:33.118Z,13.54
2022-12-11T17:46:00.068Z,13.52
2022-12-11T17:48:26.844Z,13.44
2022-12-11T17:50:54.006Z,13.50
2022-12-11T17:53:21.843Z,13.45
2022-12-11T17:55:52.094Z,13.45
2022-12-11T17:58:23.366Z,13.44
2022-12-11T18:00:53.358Z,13.41
2022-12-11T18:03:20.760Z,13.41
2022-12-11T18:05:50.618Z,13.42
2022-12-11T18:08:22.585Z,13.39
2022-12-11T18:10:49.382Z,13.40
2022-12-11T18:13:16.794Z,13.38
2022-12-11T18:15:43.554Z,13.38
2022-12-11T18:18:10.664Z,13.38
2022-12-11T18:20:38.113Z,13.37
2022-12-11T18:23:05.893Z,13.37
2022-12-11T18:25:32.947Z,13.37
2022-12-11T18:28:00.248Z,13.36
2022-12-11T18:30:27.993Z,13.35
2022-12-11T18:32:54.788Z,13.34
2022-12-11T18:35:22.057Z,13.32
2022-12-11T18:37:48.839Z,13.32
2022-12-11T18:40:15.527Z,13.32
2022-12-11T18:42:42.168Z,13.29
2022-12-11T18:45:10.234Z,13.28
2022-12-11T18:47:38.191Z,13.29
2022-12-11T18:50:08.215Z,13.29
2022-12-11T18:52:35.496Z,13.27
2022-12-11T18:55:02.536Z,13.27
2022-12-11T18:57:29.313Z,13.26
2022-12-11T18:59:56.047Z,13.25
2022-12-11T19:02:23.264Z,13.19
2022-12-11T19:04:50.112Z,13.23
2022-12-11T19:07:16.905Z,13.22
2022-12-11T19:09:47.910Z,13.21
2022-12-11T19:12:15.541Z,13.22
2022-12-11T19:14:42.371Z,13.21
2022-12-11T19:17:09.134Z,13.17
2022-12-11T19:19:36.156Z,13.23
2022-12-11T19:22:03.342Z,13.20
2022-12-11T19:24:30.374Z,13.19
2022-12-11T19:26:57.612Z,13.21
2022-12-11T19:29:28.023Z,13.18
2022-12-11T19:31:55.974Z,13.17
2022-12-11T19:34:23.470Z,13.17
2022-12-11T19:36:50.475Z,13.18
2022-12-11T19:39:17.736Z,13.15
2022-12-11T19:41:44.596Z,13.16
2022-12-11T19:44:11.905Z,13.14
2022-12-11T19:46:39.491Z,13.15
2022-12-11T19:49:06.523Z,13.13
2022-12-11T19:51:38.587Z,13.13
2022-12-11T19:54:07.670Z,13.11
2022-12-11T19:56:35.852Z,13.10
2022-12-11T19:59:08.435Z,13.11
2022-12-11T20:01:37.768Z,13.11
2022-12-11T20:04:08.378Z,13.10
2022-12-11T20:06:37.696Z,13.07
2022-12-11T20:09:10.964Z,13.09
2022-12-11T20:11:40.012Z,13.15
2022-12-11T20:14:07.475Z,13.10
2022-12-11T20:17:02.100Z,13.09
2022-12-11T20:19:21.173Z,13.05
2022-12-11T20:21:48.152Z,13.00
2022-12-11T20:24:14.853Z,13.00
2022-12-11T20:26:41.599Z,12.96
2022-12-11T20:29:08.564Z,12.96
2022-12-11T20:31:36.726Z,12.94
2022-12-11T20:34:04.786Z,12.94
2022-12-11T20:36:32.197Z,12.93
2022-12-11T20:38:59.317Z,12.94
2022-12-11T20:41:26.630Z,12.91
2022-12-11T20:43:56.736Z,12.92
2022-12-11T20:46:25.756Z,12.92
2022-12-11T20:48:54.204Z,12.91
2022-12-11T20:51:26.141Z,12.90
2022-12-11T20:53:59.541Z,12.91
2022-12-11T20:56:29.842Z,12.91
2022-12-11T20:58:58.794Z,12.86
2022-12-11T21:01:27.473Z,12.88
2022-12-11T21:03:54.791Z,12.89
2022-12-11T21:07:00.211Z,13.00
2022-12-11T21:09:28.048Z,12.99
2022-12-11T21:11:57.385Z,12.98
2022-12-11T21:14:24.327Z,13.04
2022-12-11T21:16:50.995Z,13.18
2022-12-11T21:19:17.972Z,13.11
2022-12-11T21:21:45.545Z,13.06
2022-12-11T21:24:19.728Z,13.04
2022-12-11T21:26:47.544Z,13.02
2022-12-11T21:29:14.863Z,12.98
2022-12-11T21:31:42.355Z,12.97
2022-12-11T21:34:09.191Z,12.97
2022-12-11T21:36:36.054Z,12.94
2022-12-11T21:39:03.152Z,12.94
2022-12-11T21:41:29.843Z,12.93
2022-12-11T21:46:43.745Z,12.89
2022-12-11T21:49:10.461Z,12.89
2022-12-11T21:51:43.929Z,12.91
2022-12-11T21:54:17.119Z,12.88
2022-12-11T21:56:44.553Z,12.89
2022-12-11T21:59:11.501Z,12.86
2022-12-11T22:01:42.042Z,12.86
2022-12-11T22:04:10.763Z,12.81
2022-12-11T22:06:37.521Z,12.86
2022-12-11T22:09:05.567Z,12.85
2022-12-11T22:11:34.755Z,12.85
2022-12-11T22:14:02.000Z,12.79
2022-12-11T22:16:29.180Z,12.84
2022-12-11T22:18:55.931Z,12.80
2022-12-11T22:21:22.609Z,12.80
2022-12-11T22:23:49.367Z,12.82
2022-12-11T22:26:21.995Z,12.80
2022-12-11T22:28:49.335Z,12.79
2022-12-11T22:31:20.892Z,12.79
2022-12-11T22:33:49.995Z,12.77
2022-12-11T22:36:18.698Z,12.78
2022-12-11T22:38:46.066Z,12.77
2022-12-11T22:41:21.997Z,12.76
2022-12-11T22:43:49.207Z,12.75
2022-12-11T22:46:17.090Z,12.75
2022-12-11T22:48:43.866Z,12.75
2022-12-11T22:51:10.533Z,12.74
2022-12-11T22:53:37.343Z,12.74
2022-12-11T22:56:08.648Z,12.74
2022-12-11T22:58:36.314Z,12.74
2022-12-11T23:01:04.250Z,12.73
2022-12-11T23:03:31.007Z,12.71
2022-12-11T23:06:01.959Z,12.70
2022-12-11T23:08:31.673Z,12.70
2022-12-11T23:10:58.279Z,12.68
2022-12-11T23:13:24.826Z,12.68
2022-12-11T23:15:51.408Z,12.68
2022-12-11T23:18:17.968Z,12.68
2022-12-11T23:20:45.067Z,12.67
2022-12-11T23:23:11.710Z,12.66
2022-12-11T23:25:38.300Z,12.67
2022-12-11T23:28:05.066Z,12.65
2022-12-11T23:30:31.716Z,12.63
2022-12-11T23:32:58.264Z,12.63
2022-12-11T23:35:24.917Z,12.65
2022-12-11T23:37:51.898Z,12.63
2022-12-11T23:40:18.487Z,12.62
2022-12-11T23:42:45.120Z,12.62
2022-12-11T23:45:12.311Z,12.64
2022-12-11T23:47:39.024Z,12.62
2022-12-11T23:50:05.844Z,12.62
2022-12-11T23:52:32.552Z,12.61
2022-12-11T23:54:59.124Z,12.62
2022-12-11T23:57:25.750Z,12.61
2022-12-11T23:59:52.399Z,12.60
